모두
Mount Keith Airport (Mount Keith, Western Australia) WME 기상
|
Mount Keith, Western Australia (WME / YMNE)
맑은 하늘
가벼운 바람 |
|
13 °C |
There is no TAF data available at WME or any nearby airports.
최근 WME METAR 이력
| Date | Time (AWST) | Flight Rules | Wind Dir. | Speed | Type | Height AGL (ft) | Visibility | Temp (°C) | Temp (°F) | Dew Point (°C) | Dew Point (°F) | Rel. Humid. | Pressure | Density Altitude | Remarks |
|---|---|---|---|---|---|---|---|---|---|---|---|---|---|---|---|
| 06-5월 | 00:00 | VFR | 130° | 10 kt | 10000 meters | 13° | 55° | 5° | 41° | 58% | 1025 mb | 1,441 ft | |||
| 05-5월 | 23:00 | VFR | 140° | 9 kt | 10000 meters | 14° | 57° | 6° | 42° | 58% | 1025 mb | 1,561 ft | |||
| 05-5월 | 22:00 | VFR | 140° | 9 kt | 10000 meters | 14° | 57° | 6° | 42° | 58% | 1025 mb | 1,561 ft | |||
| 05-5월 | 21:00 | VFR | 130° | 8 kt | 10000 meters | 15° | 59° | 6° | 42° | 55% | 1025 mb | 1,681 ft | |||
| 05-5월 | 20:00 | VFR | 140° | 7 kt | 10000 meters | 16° | 60° | 5° | 41° | 48% | 1025 mb | 1,801 ft | |||
| 05-5월 | 19:00 | VFR | 140° | 9 kt | 10000 meters | 17° | 62° | 5° | 41° | 45% | 1024 mb | 1,951 ft | |||
| 05-5월 | 18:00 | VFR | 140° | 8 kt | 10000 meters | 18° | 64° | 5° | 41° | 42% | 1024 mb | 2,071 ft | |||
| 05-5월 | 17:00 | VFR | 150° | 11 kt | 10000 meters | 19° | 66° | 4° | 39° | 37% | 1023 mb | 2,220 ft | |||
| 05-5월 | 16:00 | VFR | 130° | 9 kt | 10000 meters | 20° | 68° | 4° | 39° | 35% | 1023 mb | 2,340 ft | |||
| 05-5월 | 15:00 | VFR | 150° | 12 kt | 10000 meters | 21° | 69° | 4° | 39° | 33% | 1023 mb | 2,460 ft | |||
| 05-5월 | 14:00 | VFR | 140° | 10 kt | 10000 meters | 20° | 68° | 4° | 39° | 35% | 1023 mb | 2,340 ft | |||
| 05-5월 | 13:00 | VFR | 100° | 10 kt | 10000 meters | 20° | 68° | 5° | 41° | 37% | 1023 mb | 2,340 ft | |||
| 05-5월 | 12:00 | VFR | 100° | 9 kt | 10000 meters | 19° | 66° | 5° | 41° | 40% | 1024 mb | 2,191 ft | |||
| 05-5월 | 11:00 | VFR | 90° | 9 kt | 10000 meters | 18° | 64° | 7° | 44° | 49% | 1025 mb | 2,041 ft | |||
| 05-5월 | 10:00 | VFR | 70° | 11 kt | 10000 meters | 16° | 60° | 6° | 42° | 51% | 1026 mb | 1,772 ft | |||
| 05-5월 | 09:00 | VFR | 80° | 15 kt | 10000 meters | 15° | 59° | 7° | 44° | 59% | 1026 mb | 1,652 ft | |||
| 05-5월 | 08:00 | VFR | 90° | 7 kt | 10000 meters | 12° | 53° | 7° | 44° | 71% | 1026 mb | 1,292 ft | |||
| 05-5월 | 07:00 | VFR | 120° | 3 kt | 10000 meters | 9° | 48° | 6° | 42° | 81% | 1026 mb | 932 ft | |||
| 05-5월 | 06:00 | VFR | 120° | 5 kt | 10000 meters | 9° | 48° | 6° | 42° | 81% | 1025 mb | 961 ft | |||
| 05-5월 | 05:00 | VFR | 120° | 7 kt | 10000 meters | 10° | 50° | 6° | 42° | 76% | 1025 mb | 1,081 ft | |||
| 05-5월 | 04:00 | VFR | 120° | 7 kt | 10000 meters | 10° | 50° | 6° | 42° | 76% | 1025 mb | 1,081 ft | |||
| 05-5월 | 03:00 | VFR | 110° | 5 kt | 10000 meters | 11° | 51° | 6° | 42° | 71% | 1025 mb | 1,201 ft | |||
| 05-5월 | 02:00 | VFR | 110° | 7 kt | 10000 meters | 12° | 53° | 6° | 42° | 67% | 1025 mb | 1,321 ft | |||
| 05-5월 | 01:00 | VFR | 120° | 8 kt | 10000 meters | 13° | 55° | 6° | 42° | 62% | 1025 mb | 1,441 ft |
로그인
| 귀하의 브라우저는 지원되지 않습니다.. 브라우저를 업그레이드하세요 |
